Time;durP1;ratioP1;P1;durP2;ratioP2;P2;SDS_P1;SDS_P2;PMS_P1;PMS_P2;Temp;Humidity;BMP_temperature;BMP_pressure;BME280_temperature;BME280_humidity;BME280_pressure;Samples;Min_cycle;Max_cycle;Signal;HPM_P1;HPM_P2
2023/07/01 00:01:40;;;;;;;2.30;1.77;;;20.70;99.90;;;;;;7386628;19;20135;-81
2023/07/01 00:04:06;;;;;;;3.15;1.70;;;20.90;99.90;;;;;;7384980;19;20149;-80
2023/07/01 00:06:32;;;;;;;1.92;1.75;;;20.70;99.90;;;;;;7383722;19;20131;-82
2023/07/01 00:08:58;;;;;;;2.13;1.45;;;20.80;99.90;;;;;;7385919;19;20146;-82
2023/07/01 00:11:24;;;;;;;1.73;1.30;;;20.90;99.90;;;;;;7382976;19;20159;-81
2023/07/01 00:13:49;;;;;;;2.85;1.67;;;21.00;99.90;;;;;;7375669;19;20780;-81
2023/07/01 00:16:15;;;;;;;1.95;1.55;;;20.90;99.90;;;;;;7382442;19;20148;-81
2023/07/01 00:18:42;;;;;;;2.35;1.50;;;20.80;99.90;;;;;;7382613;19;20231;-81
2023/07/01 00:21:09;;;;;;;9.40;2.05;;;20.80;99.90;;;;;;7384132;19;20164;-81
2023/07/01 00:23:35;;;;;;;2.67;1.60;;;20.80;99.90;;;;;;7386823;19;20470;-81
2023/07/01 00:26:01;;;;;;;2.95;1.55;;;20.60;99.90;;;;;;7383349;19;20134;-82
2023/07/01 00:28:27;;;;;;;2.03;1.35;;;20.50;99.90;;;;;;7386654;19;20139;-82
2023/07/01 00:30:53;;;;;;;3.00;1.60;;;20.70;99.90;;;;;;7382899;19;21502;-81
2023/07/01 00:33:19;;;;;;;3.13;1.52;;;20.50;99.90;;;;;;7387395;19;20918;-81
2023/07/01 00:35:45;;;;;;;3.78;1.60;;;20.70;99.90;;;;;;7389065;19;20131;-80
2023/07/01 00:38:11;;;;;;;2.05;1.38;;;20.60;99.90;;;;;;7392327;19;20222;-81
2023/07/01 00:40:37;;;;;;;1.98;1.73;;;20.30;99.90;;;;;;7389014;19;20146;-80
2023/07/01 00:43:03;;;;;;;2.47;1.70;;;20.20;99.90;;;;;;7391192;19;20135;-81
2023/07/01 00:45:29;;;;;;;2.25;1.20;;;20.40;99.90;;;;;;7389084;19;20131;-82
2023/07/01 00:47:55;;;;;;;2.45;1.73;;;20.30;99.90;;;;;;7389742;19;20134;-81
2023/07/01 00:50:21;;;;;;;2.35;1.38;;;20.20;99.90;;;;;;7390265;19;20131;-82
2023/07/01 00:52:47;;;;;;;3.20;1.58;;;20.20;99.90;;;;;;7390629;19;20134;-80
2023/07/01 00:55:13;;;;;;;2.53;1.60;;;20.20;99.90;;;;;;7391124;19;20145;-81
2023/07/01 00:57:39;;;;;;;2.85;1.50;;;20.40;99.90;;;;;;7388692;19;20630;-81
2023/07/01 01:00:11;;;;;;;1.95;1.48;;;20.50;99.90;;;;;;7389062;19;20133;-81
2023/07/01 01:02:53;;;;;;;5.85;1.65;;;20.60;99.90;;;;;;7391069;19;20134;-82
2023/07/01 01:05:25;;;;;;;2.55;1.85;;;20.50;99.90;;;;;;7390887;19;20197;-82
2023/07/01 01:08:11;;;;;;;1.60;1.27;;;20.50;99.90;;;;;;7390308;19;20134;-81
2023/07/01 01:10:40;;;;;;;1.65;1.48;;;20.40;99.90;;;;;;7388000;19;20130;-82
2023/07/01 01:13:06;;;;;;;1.58;1.45;;;20.40;99.90;;;;;;7389795;19;20149;-82
2023/07/01 01:15:33;;;;;;;1.48;1.30;;;20.20;99.90;;;;;;7388558;19;20123;-82
2023/07/01 01:18:05;;;;;;;3.50;1.60;;;20.30;99.90;;;;;;7389402;19;20149;-83
2023/07/01 01:20:33;;;;;;;1.98;1.60;;;20.30;99.90;;;;;;7390320;19;20151;-83
2023/07/01 01:23:06;;;;;;;1.77;1.50;;;20.40;99.90;;;;;;7389031;19;20149;-83
2023/07/01 01:25:45;;;;;;;3.65;1.65;;;20.40;99.90;;;;;;7381154;19;20161;-83
2023/07/01 01:28:14;;;;;;;2.65;1.60;;;20.20;99.90;;;;;;7390917;19;20134;-83
2023/07/01 01:30:41;;;;;;;1.55;1.40;;;20.20;99.90;;;;;;7387710;19;20141;-82
2023/07/01 01:33:07;;;;;;;3.13;1.45;;;20.20;99.90;;;;;;7389522;19;20151;-83
2023/07/01 01:35:33;;;;;;;3.75;1.50;;;20.30;99.90;;;;;;7389157;19;20540;-82
2023/07/01 01:38:23;;;;;;;2.13;1.40;;;20.30;99.90;;;;;;7387743;19;20843;-81
2023/07/01 01:41:00;;;;;;;2.00;1.60;;;20.20;99.90;;;;;;7388536;19;20174;-82
2023/07/01 01:43:43;;;;;;;2.22;1.40;;;20.20;99.90;;;;;;7389879;19;20590;-83
2023/07/01 01:46:11;;;;;;;2.40;1.50;;;20.20;99.90;;;;;;7386836;19;20158;-83
2023/07/01 01:48:38;;;;;;;1.88;1.40;;;20.20;99.90;;;;;;7388570;19;20191;-83
2023/07/01 01:51:04;;;;;;;2.63;1.67;;;20.00;99.90;;;;;;7388144;19;20485;-82
2023/07/01 01:53:32;;;;;;;1.83;1.30;;;20.10;99.90;;;;;;7391031;19;20194;-82
2023/07/01 01:55:58;;;;;;;2.33;1.50;;;19.90;99.90;;;;;;7387955;19;20159;-82
2023/07/01 01:58:24;;;;;;;1.83;1.40;;;19.90;99.90;;;;;;7389291;19;20334;-83
2023/07/01 02:00:50;;;;;;;3.05;1.50;;;19.90;99.90;;;;;;7388204;19;20142;-82
2023/07/01 02:03:16;;;;;;;1.92;1.50;;;19.90;99.90;;;;;;7388581;19;20143;-82
2023/07/01 02:05:42;;;;;;;2.97;1.65;;;19.90;99.90;;;;;;7388934;19;20139;-82
2023/07/01 02:08:08;;;;;;;2.60;1.60;;;19.80;99.90;;;;;;7387550;19;20510;-81
2023/07/01 02:10:34;;;;;;;1.50;1.20;;;19.80;99.90;;;;;;7390119;19;20153;-81
2023/07/01 02:13:00;;;;;;;2.88;1.35;;;19.80;99.90;;;;;;7388036;19;20142;-81
2023/07/01 02:15:26;;;;;;;2.10;1.30;;;19.80;99.90;;;;;;7387434;19;20143;-81
2023/07/01 02:17:53;;;;;;;1.98;1.40;;;19.80;99.90;;;;;;7387329;19;20158;-82
2023/07/01 02:20:18;;;;;;;2.10;1.48;;;19.80;99.90;;;;;;7389218;19;20156;-81
2023/07/01 02:22:44;;;;;;;1.98;1.50;;;19.70;99.90;;;;;;7386623;19;20139;-82
2023/07/01 02:25:10;;;;;;;3.13;1.60;;;19.70;99.90;;;;;;7387456;19;20143;-81
2023/07/01 02:27:36;;;;;;;5.55;1.65;;;19.70;99.90;;;;;;7386040;19;20146;-81
2023/07/01 02:30:03;;;;;;;1.92;1.50;;;19.60;99.90;;;;;;7386525;19;20538;-81
2023/07/01 02:32:29;;;;;;;2.97;1.60;;;19.60;99.90;;;;;;7386949;19;20606;-81
2023/07/01 02:34:55;;;;;;;2.80;1.70;;;19.70;99.90;;;;;;7386019;19;20150;-80
2023/07/01 02:37:21;;;;;;;1.40;1.30;;;19.80;99.90;;;;;;7388918;19;20142;-80
2023/07/01 02:39:47;;;;;;;2.78;1.65;;;19.80;99.90;;;;;;7385260;19;20146;-82
2023/07/01 02:42:16;;;;;;;2.20;1.60;;;19.70;99.90;;;;;;7387214;19;20155;-82
2023/07/01 02:44:42;;;;;;;2.13;1.60;;;19.80;99.90;;;;;;7384918;19;20161;-81
2023/07/01 02:47:08;;;;;;;2.38;1.15;;;19.60;99.90;;;;;;7383594;19;20154;-80
2023/07/01 02:49:33;;;;;;;6.45;1.70;;;19.60;99.90;;;;;;7388099;19;20138;-81
2023/07/01 02:51:59;;;;;;;1.80;1.35;;;19.60;99.90;;;;;;7384279;19;20165;-81
2023/07/01 02:54:25;;;;;;;2.00;1.52;;;19.50;99.90;;;;;;7386469;19;20131;-81
2023/07/01 02:56:51;;;;;;;2.05;1.85;;;19.60;99.90;;;;;;7378944;19;20610;-81
2023/07/01 02:59:16;;;;;;;3.72;1.63;;;19.60;99.90;;;;;;7387591;19;20155;-81
2023/07/01 03:01:44;;;;;;;3.63;1.60;;;19.60;99.90;;;;;;7386298;19;20130;-81
2023/07/01 03:04:11;;;;;;;2.10;1.58;;;19.60;99.90;;;;;;7386915;19;20147;-80
2023/07/01 03:06:37;;;;;;;1.70;1.33;;;19.50;99.90;;;;;;7386517;19;20148;-80
2023/07/01 03:09:07;;;;;;;3.65;1.52;;;19.50;99.90;;;;;;7377819;19;20151;-80
2023/07/01 03:11:36;;;;;;;1.88;1.50;;;19.50;99.90;;;;;;7382886;19;20206;-81
2023/07/01 03:14:02;;;;;;;2.30;1.30;;;19.30;99.90;;;;;;7385398;19;20142;-81
2023/07/01 03:16:31;;;;;;;1.85;1.48;;;19.30;99.90;;;;;;7385133;19;20131;-81
2023/07/01 03:18:58;;;;;;;2.10;1.67;;;19.30;99.90;;;;;;7387632;19;20138;-81
2023/07/01 03:21:25;;;;;;;2.70;1.85;;;19.40;99.90;;;;;;7385322;19;20176;-82
2023/07/01 03:23:51;;;;;;;1.95;1.70;;;19.40;99.90;;;;;;7387148;19;20157;-81
2023/07/01 03:26:17;;;;;;;2.33;1.75;;;19.30;99.90;;;;;;7383625;19;20147;-81
2023/07/01 03:28:43;;;;;;;2.03;1.50;;;19.30;99.90;;;;;;7386125;19;20131;-81
2023/07/01 03:31:09;;;;;;;1.92;1.55;;;19.20;99.90;;;;;;7384332;19;20464;-81
2023/07/01 03:33:35;;;;;;;1.50;1.17;;;19.20;99.90;;;;;;7385124;19;20153;-80
2023/07/01 03:36:01;;;;;;;1.60;1.50;;;19.30;99.90;;;;;;7385400;19;20131;-80
2023/07/01 03:38:27;;;;;;;2.35;1.67;;;19.30;99.90;;;;;;7385739;19;20310;-80
2023/07/01 03:40:53;;;;;;;3.58;1.70;;;19.10;99.90;;;;;;7385020;19;20131;-82
2023/07/01 03:43:18;;;;;;;2.67;1.60;;;19.20;99.90;;;;;;7384816;19;21056;-81
2023/07/01 03:45:55;;;;;;;3.85;1.70;;;19.30;99.90;;;;;;7386237;19;20147;-81
2023/07/01 03:48:21;;;;;;;3.40;1.70;;;19.30;99.90;;;;;;7387370;19;20237;-80
2023/07/01 03:50:46;;;;;;;2.42;1.60;;;19.30;99.90;;;;;;7382971;19;20166;-81
2023/07/01 03:53:12;;;;;;;3.38;1.70;;;19.30;99.90;;;;;;7385273;19;21748;-81
2023/07/01 03:55:38;;;;;;;2.70;1.83;;;19.30;99.90;;;;;;7384398;19;20123;-82
2023/07/01 03:58:04;;;;;;;2.30;1.73;;;19.30;99.90;;;;;;7385159;19;20633;-81
2023/07/01 04:00:30;;;;;;;2.50;1.75;;;19.30;99.90;;;;;;7387312;19;20139;-81
2023/07/01 04:03:05;;;;;;;1.50;1.40;;;19.00;99.90;;;;;;7387183;19;21424;-82
2023/07/01 04:05:34;;;;;;;2.25;1.77;;;19.10;99.90;;;;;;7386644;19;20498;-80
2023/07/01 04:08:00;;;;;;;2.47;1.55;;;19.10;99.90;;;;;;7388205;19;20127;-82
2023/07/01 04:10:26;;;;;;;2.22;1.50;;;19.10;99.90;;;;;;7389095;19;20144;-82
2023/07/01 04:12:52;;;;;;;2.38;1.95;;;19.20;99.90;;;;;;7391615;19;20205;-82
2023/07/01 04:15:17;;;;;;;4.22;2.00;;;19.30;99.90;;;;;;7389886;19;20517;-80
2023/07/01 04:17:46;;;;;;;3.22;1.52;;;19.30;99.90;;;;;;7391573;19;20157;-80
2023/07/01 04:20:13;;;;;;;2.33;1.70;;;19.30;99.90;;;;;;7389219;19;20137;-81
2023/07/01 04:22:39;;;;;;;3.38;1.98;;;19.30;99.90;;;;;;7390333;19;20139;-80
2023/07/01 04:25:09;;;;;;;2.70;2.00;;;19.40;99.90;;;;;;7389497;19;20157;-81
2023/07/01 04:27:35;;;;;;;2.42;1.70;;;19.40;99.90;;;;;;7392794;19;20133;-81
2023/07/01 04:30:02;;;;;;;3.45;1.75;;;19.40;99.90;;;;;;7389176;19;20190;-81
2023/07/01 04:32:30;;;;;;;2.97;1.77;;;19.40;99.90;;;;;;7392472;19;20130;-80
2023/07/01 04:34:56;;;;;;;2.10;1.77;;;19.40;99.90;;;;;;7389759;19;20131;-81
2023/07/01 04:37:22;;;;;;;5.05;1.90;;;19.30;99.90;;;;;;7390270;19;20467;-81
2023/07/01 04:39:48;;;;;;;2.15;1.70;;;19.30;99.90;;;;;;7390121;19;20512;-80
2023/07/01 04:42:13;;;;;;;2.25;1.60;;;19.40;99.90;;;;;;7391118;19;20583;-80
2023/07/01 04:44:39;;;;;;;3.05;2.10;;;19.30;99.90;;;;;;7390759;19;20158;-81
2023/07/01 04:47:05;;;;;;;2.22;1.80;;;19.30;99.90;;;;;;7388302;19;20539;-81
2023/07/01 04:49:30;;;;;;;4.95;1.70;;;19.30;99.90;;;;;;7390482;19;20156;-81
2023/07/01 04:51:57;;;;;;;3.20;2.00;;;19.30;99.90;;;;;;7388930;19;20154;-83
2023/07/01 04:54:23;;;;;;;3.28;1.60;;;19.30;99.90;;;;;;7391936;19;20475;-81
2023/07/01 04:56:49;;;;;;;2.17;1.58;;;19.30;99.90;;;;;;7389625;19;20142;-80
2023/07/01 04:59:14;;;;;;;2.95;1.88;;;19.30;99.90;;;;;;7386894;19;20153;-80
2023/07/01 05:01:40;;;;;;;3.13;1.65;;;19.20;99.90;;;;;;7392329;19;20236;-80
2023/07/01 05:04:06;;;;;;;1.90;1.70;;;19.30;99.90;;;;;;7388804;19;20158;-81
2023/07/01 05:06:32;;;;;;;4.22;1.85;;;19.30;99.90;;;;;;7391053;19;20147;-81
2023/07/01 05:08:58;;;;;;;1.65;1.52;;;19.40;99.90;;;;;;7389399;19;20151;-81
2023/07/01 05:11:24;;;;;;;1.92;1.50;;;19.50;99.90;;;;;;7390190;19;20138;-81
2023/07/01 05:13:50;;;;;;;3.50;1.65;;;19.40;99.90;;;;;;7389253;19;20169;-81
2023/07/01 05:16:16;;;;;;;1.90;1.70;;;19.50;99.90;;;;;;7387830;19;20139;-80
2023/07/01 05:18:41;;;;;;;2.85;1.52;;;19.50;99.90;;;;;;7389269;19;20961;-81
2023/07/01 05:21:07;;;;;;;4.60;2.92;;;19.60;99.90;;;;;;7391546;19;20228;-81
2023/07/01 05:23:33;;;;;;;2.35;1.67;;;19.60;99.90;;;;;;7388187;19;20493;-82
2023/07/01 05:25:59;;;;;;;2.13;1.60;;;19.50;99.90;;;;;;7388131;19;20138;-82
2023/07/01 05:28:24;;;;;;;2.67;1.60;;;19.50;99.90;;;;;;7387733;19;20139;-81
2023/07/01 05:30:50;;;;;;;2.00;1.77;;;19.70;99.90;;;;;;7388034;19;20142;-83
2023/07/01 05:33:16;;;;;;;1.92;1.55;;;19.80;99.90;;;;;;7387827;19;20154;-81
2023/07/01 05:35:42;;;;;;;2.03;1.63;;;19.90;99.90;;;;;;7389294;19;20146;-82
2023/07/01 05:38:12;;;;;;;2.95;1.70;;;19.90;99.90;;;;;;7388359;19;20164;-80
2023/07/01 05:40:38;;;;;;;2.63;1.60;;;19.80;99.90;;;;;;7391762;19;20145;-82
2023/07/01 05:43:04;;;;;;;1.77;1.52;;;19.90;99.90;;;;;;7388711;19;20154;-82
2023/07/01 05:45:30;;;;;;;2.22;1.50;;;19.90;99.90;;;;;;7388367;19;20142;-80
2023/07/01 05:47:56;;;;;;;2.47;1.63;;;19.90;99.90;;;;;;7387604;19;20628;-81
2023/07/01 05:50:33;;;;;;;3.72;1.58;;;19.70;99.90;;;;;;7388367;19;20142;-81
2023/07/01 05:52:59;;;;;;;2.92;1.70;;;19.60;99.90;;;;;;7388902;19;20193;-81
2023/07/01 05:55:25;;;;;;;1.88;1.50;;;19.80;99.90;;;;;;7388913;19;20150;-81
2023/07/01 05:57:50;;;;;;;2.58;1.50;;;19.90;99.90;;;;;;7388159;19;20130;-81
2023/07/01 06:00:16;;;;;;;2.28;1.40;;;19.80;99.90;;;;;;7388443;19;20210;-81
2023/07/01 06:02:42;;;;;;;7.53;1.83;;;19.60;99.90;;;;;;7388270;19;20147;-80
2023/07/01 06:05:09;;;;;;;2.03;1.50;;;19.80;99.90;;;;;;7388472;19;20153;-79
2023/07/01 06:07:34;;;;;;;2.50;1.35;;;19.90;99.90;;;;;;7386318;19;20138;-81
2023/07/01 06:10:00;;;;;;;2.20;1.60;;;20.00;99.90;;;;;;7387386;19;20161;-80
2023/07/01 06:12:26;;;;;;;1.70;1.25;;;20.00;99.90;;;;;;7387317;19;20233;-81
2023/07/01 06:14:52;;;;;;;1.70;1.30;;;20.00;99.90;;;;;;7386732;19;20149;-80
2023/07/01 06:17:18;;;;;;;1.88;1.25;;;20.80;99.90;;;;;;7387301;19;20187;-80
2023/07/01 06:19:44;;;;;;;4.70;1.55;;;22.80;99.90;;;;;;7385627;19;20131;-81
2023/07/01 06:22:09;;;;;;;1.85;1.40;;;23.80;99.90;;;;;;7387811;19;20129;-81
2023/07/01 06:24:35;;;;;;;1.83;1.45;;;24.20;99.90;;;;;;7384916;19;20138;-81
2023/07/01 06:27:01;;;;;;;1.92;1.38;;;23.90;99.90;;;;;;7387728;19;20478;-82
2023/07/01 06:29:27;;;;;;;3.28;1.10;;;25.80;99.90;;;;;;7385301;19;20154;-82
2023/07/01 06:31:53;;;;;;;2.13;1.40;;;27.10;99.90;;;;;;7384323;19;20135;-80
2023/07/01 06:34:18;;;;;;;3.40;1.08;;;28.50;98.50;;;;;;7384684;19;20143;-80
2023/07/01 06:36:44;;;;;;;1.38;1.02;;;29.10;95.90;;;;;;7383647;19;20239;-79
2023/07/01 06:39:12;;;;;;;2.53;1.30;;;29.20;94.50;;;;;;7386178;19;20131;-78
2023/07/01 06:41:38;;;;;;;2.92;1.40;;;29.40;93.40;;;;;;7385839;19;20748;-80
2023/07/01 06:44:04;;;;;;;1.98;1.60;;;30.20;91.40;;;;;;7387205;19;20135;-79
2023/07/01 06:46:30;;;;;;;4.20;1.30;;;30.20;90.90;;;;;;7384256;19;20185;-79
2023/07/01 06:48:56;;;;;;;2.08;1.50;;;29.80;91.40;;;;;;7384957;19;20135;-79
2023/07/01 06:51:21;;;;;;;3.47;1.35;;;30.60;88.90;;;;;;7383936;19;20157;-80
2023/07/01 06:53:47;;;;;;;1.83;1.20;;;29.90;90.20;;;;;;7386188;19;20190;-80
2023/07/01 06:56:13;;;;;;;2.55;1.27;;;30.50;88.00;;;;;;7384691;19;20558;-79
2023/07/01 06:58:40;;;;;;;1.92;1.15;;;30.80;87.60;;;;;;7385400;19;20610;-80
2023/07/01 07:01:06;;;;;;;2.63;1.30;;;31.00;84.80;;;;;;7385558;19;20143;-81
2023/07/01 07:03:33;;;;;;;1.40;1.05;;;30.50;83.90;;;;;;7385721;19;20131;-80
2023/07/01 07:05:59;;;;;;;3.22;1.25;;;29.30;84.60;;;;;;7383842;19;20138;-79
2023/07/01 07:08:25;;;;;;;2.25;0.95;;;29.60;81.80;;;;;;7384294;19;20146;-79
2023/07/01 07:10:51;;;;;;;2.45;1.48;;;29.40;84.50;;;;;;7384833;19;20594;-79
2023/07/01 07:13:18;;;;;;;4.10;1.73;;;28.50;87.40;;;;;;7384197;19;20155;-79
2023/07/01 07:15:44;;;;;;;21.45;3.30;;;28.40;85.10;;;;;;7383942;19;20169;-79
2023/07/01 07:18:10;;;;;;;4.05;1.30;;;28.90;85.90;;;;;;7383690;19;20146;-81
2023/07/01 07:20:40;;;;;;;4.07;1.20;;;28.50;86.70;;;;;;7384634;19;20137;-79
2023/07/01 07:23:06;;;;;;;1.15;1.00;;;27.90;88.50;;;;;;7383580;19;20744;-80
2023/07/01 07:25:33;;;;;;;1.95;1.08;;;28.30;87.90;;;;;;7379990;19;20771;-79
2023/07/01 07:27:59;;;;;;;4.32;1.42;;;28.50;86.70;;;;;;7384808;19;20262;-79
2023/07/01 07:30:25;;;;;;;1.92;1.27;;;28.30;88.30;;;;;;7381465;19;20154;-77
2023/07/01 07:32:51;;;;;;;2.78;1.13;;;28.40;87.10;;;;;;7384760;19;20165;-79
2023/07/01 07:35:17;;;;;;;1.95;1.20;;;28.50;85.10;;;;;;7377318;19;20198;-74
2023/07/01 07:37:43;;;;;;;2.75;1.20;;;28.60;84.60;;;;;;7379999;19;20158;-79
2023/07/01 07:40:10;;;;;;;1.23;1.05;;;28.30;84.50;;;;;;7385700;19;20614;-79
2023/07/01 07:42:36;;;;;;;1.88;1.08;;;28.20;85.50;;;;;;7386332;19;20154;-77
2023/07/01 07:45:03;;;;;;;1.35;1.10;;;28.00;86.80;;;;;;7389052;19;20135;-77
2023/07/01 07:47:29;;;;;;;1.20;1.00;;;28.30;86.40;;;;;;7388675;19;20150;-80
2023/07/01 07:49:55;;;;;;;3.67;1.15;;;27.50;88.00;;;;;;7388361;19;20617;-77
2023/07/01 07:52:21;;;;;;;2.50;1.10;;;28.20;87.30;;;;;;7384693;19;20151;-79
2023/07/01 07:54:47;;;;;;;1.95;1.10;;;28.00;88.60;;;;;;7386802;19;20785;-80
2023/07/01 07:57:13;;;;;;;2.72;1.70;;;28.20;87.50;;;;;;7386843;19;20153;-76
2023/07/01 07:59:43;;;;;;;1.50;0.98;;;28.10;87.90;;;;;;7389796;19;20130;-78
2023/07/01 08:02:09;;;;;;;2.42;1.40;;;27.80;87.10;;;;;;7392036;19;20546;-79
2023/07/01 08:04:36;;;;;;;1.83;1.20;;;27.30;89.30;;;;;;7393138;19;20197;-79
2023/07/01 08:07:02;;;;;;;1.30;1.08;;;27.40;88.90;;;;;;7390835;19;20242;-77
2023/07/01 08:09:28;;;;;;;3.63;1.38;;;27.30;89.30;;;;;;7392719;19;20158;-76
2023/07/01 08:11:58;;;;;;;1.77;1.40;;;27.00;89.70;;;;;;7389696;19;20166;-80
2023/07/01 08:14:25;;;;;;;1.70;1.20;;;26.80;90.40;;;;;;7391524;19;20251;-78
2023/07/01 08:16:52;;;;;;;2.10;1.40;;;26.80;90.80;;;;;;7385531;19;20513;-77
2023/07/01 08:19:18;;;;;;;2.30;1.63;;;26.80;91.10;;;;;;7381933;19;20141;-76
2023/07/01 08:21:44;;;;;;;3.67;1.15;;;27.10;91.00;;;;;;7388965;19;20250;-80
2023/07/01 08:24:10;;;;;;;1.73;1.30;;;27.10;91.30;;;;;;7388742;19;20146;-79
2023/07/01 08:26:36;;;;;;;2.13;1.50;;;27.30;90.90;;;;;;7388020;19;20138;-80
2023/07/01 08:29:02;;;;;;;2.13;1.35;;;27.10;90.80;;;;;;7387119;19;20472;-79
2023/07/01 08:31:31;;;;;;;3.00;1.88;;;27.50;90.40;;;;;;7387769;19;20238;-79
2023/07/01 08:33:57;;;;;;;4.30;1.35;;;27.50;90.20;;;;;;7388677;19;20538;-78
2023/07/01 08:36:24;;;;;;;3.05;1.50;;;27.20;90.20;;;;;;7387956;19;20190;-82
2023/07/01 08:38:50;;;;;;;2.35;1.40;;;27.00;90.70;;;;;;7391115;19;20139;-82
2023/07/01 08:41:17;;;;;;;3.45;1.40;;;27.00;90.60;;;;;;7390372;19;20883;-75
2023/07/01 08:43:50;;;;;;;3.33;1.50;;;27.10;90.70;;;;;;7388144;19;20259;-75
2023/07/01 08:46:18;;;;;;;2.55;1.30;;;27.10;90.90;;;;;;7385175;19;20267;-72
2023/07/01 08:48:46;;;;;;;1.30;1.20;;;27.00;91.00;;;;;;7386920;19;20159;-73
2023/07/01 08:51:22;;;;;;;3.67;1.10;;;27.30;90.70;;;;;;7382969;19;20151;-74
2023/07/01 08:53:50;;;;;;;1.90;1.27;;;27.50;90.30;;;;;;7387169;19;20982;-73
2023/07/01 08:56:19;;;;;;;1.75;1.40;;;27.40;90.70;;;;;;7384394;19;20134;-73
2023/07/01 08:58:46;;;;;;;4.38;1.48;;;27.50;90.60;;;;;;7387587;19;20150;-73
2023/07/01 09:01:12;;;;;;;2.58;1.50;;;27.60;90.40;;;;;;7387616;19;20183;-71
2023/07/01 09:03:39;;;;;;;1.63;1.25;;;27.50;89.90;;;;;;7388384;19;20142;-72
2023/07/01 09:06:06;;;;;;;1.35;1.20;;;27.20;88.10;;;;;;7387225;19;20154;-72
2023/07/01 09:08:38;;;;;;;1.30;1.10;;;27.20;88.40;;;;;;7388643;19;20130;-71
2023/07/01 09:11:12;;;;;;;1.20;1.08;;;27.30;88.50;;;;;;7385463;19;20150;-72
2023/07/01 09:13:38;;;;;;;1.65;1.10;;;27.20;88.30;;;;;;7387839;19;20134;-72
2023/07/01 09:16:04;;;;;;;1.75;1.65;;;27.00;87.30;;;;;;7386260;19;20138;-73
2023/07/01 09:18:30;;;;;;;2.20;1.40;;;26.80;89.60;;;;;;7383730;19;20164;-73
2023/07/01 09:20:57;;;;;;;2.25;1.15;;;26.80;88.80;;;;;;7386801;19;20939;-73
2023/07/01 09:23:36;;;;;;;2.00;1.30;;;26.90;89.10;;;;;;7389557;19;20139;-71
2023/07/01 09:26:11;;;;;;;1.45;0.98;;;26.80;88.10;;;;;;7389012;19;20164;-72
2023/07/01 09:28:38;;;;;;;1.60;0.93;;;26.80;87.90;;;;;;7387883;19;20158;-72
2023/07/01 09:31:10;;;;;;;1.38;1.10;;;26.80;87.40;;;;;;7386714;19;20218;-73
2023/07/01 09:33:36;;;;;;;1.95;1.15;;;26.80;88.10;;;;;;7388222;19;20138;-73
2023/07/01 09:36:04;;;;;;;1.35;1.13;;;27.00;87.80;;;;;;7387485;19;20141;-73
2023/07/01 09:38:34;;;;;;;1.92;1.02;;;27.10;86.00;;;;;;7386822;19;20229;-74
2023/07/01 09:41:13;;;;;;;2.97;1.27;;;27.10;85.90;;;;;;7387617;19;20150;-71
2023/07/01 09:43:40;;;;;;;1.30;1.20;;;27.00;84.80;;;;;;7388254;19;20155;-72
2023/07/01 09:46:06;;;;;;;1.58;1.10;;;27.00;84.50;;;;;;7386143;19;20275;-74
2023/07/01 09:48:33;;;;;;;1.00;0.90;;;27.10;83.90;;;;;;7388004;19;20157;-73
2023/07/01 09:51:05;;;;;;;3.80;1.40;;;27.00;82.70;;;;;;7385851;19;20480;-72
2023/07/01 09:53:35;;;;;;;3.17;1.63;;;26.50;79.00;;;;;;7387660;19;20147;-73
2023/07/01 09:56:03;;;;;;;2.05;1.52;;;26.50;79.30;;;;;;7386582;19;20155;-75
2023/07/01 09:58:33;;;;;;;1.55;1.30;;;26.30;80.30;;;;;;7388910;19;20161;-72
2023/07/01 10:01:01;;;;;;;1.63;1.40;;;26.00;79.40;;;;;;7387479;19;20165;-72
2023/07/01 10:03:27;;;;;;;2.10;1.40;;;25.90;79.20;;;;;;7387744;19;20135;-73
2023/07/01 10:05:53;;;;;;;2.53;1.70;;;25.90;79.20;;;;;;7383462;19;20145;-72
2023/07/01 10:08:20;;;;;;;2.38;1.60;;;25.90;79.00;;;;;;7387339;19;20250;-73
2023/07/01 10:11:01;;;;;;;3.20;1.42;;;26.10;78.90;;;;;;7387063;19;20594;-75
2023/07/01 10:13:29;;;;;;;2.20;1.63;;;26.20;78.70;;;;;;7387542;19;20520;-76
2023/07/01 10:15:56;;;;;;;4.70;1.77;;;26.10;80.20;;;;;;7386775;19;20130;-76
2023/07/01 10:18:23;;;;;;;2.65;1.50;;;26.20;80.60;;;;;;7386811;19;20761;-75
2023/07/01 10:20:51;;;;;;;3.28;1.45;;;26.50;80.90;;;;;;7386758;19;20138;-76
2023/07/01 10:23:19;;;;;;;1.98;1.60;;;26.50;79.10;;;;;;7386804;19;20168;-76
2023/07/01 10:25:45;;;;;;;1.55;1.02;;;26.50;81.00;;;;;;7389094;19;20141;-76
2023/07/01 10:28:13;;;;;;;3.60;1.60;;;26.40;81.10;;;;;;7386678;19;20627;-76
2023/07/01 10:30:41;;;;;;;2.03;1.48;;;26.30;80.90;;;;;;7387197;19;20138;-76
2023/07/01 10:33:45;;;;;;;2.35;1.58;;;26.50;81.30;;;;;;7386919;19;20138;-75
2023/07/01 10:36:17;;;;;;;3.20;1.83;;;26.50;81.30;;;;;;7383504;19;20146;-74
2023/07/01 10:38:44;;;;;;;4.82;3.65;;;26.70;80.30;;;;;;7386981;19;20150;-75
2023/07/01 10:41:09;;;;;;;3.25;1.80;;;26.80;80.20;;;;;;7383528;19;20142;-75
2023/07/01 10:43:37;;;;;;;4.03;3.15;;;27.10;80.00;;;;;;7367448;19;20164;-75
2023/07/01 10:46:23;;;;;;;2.38;1.90;;;27.00;79.80;;;;;;7382956;19;20182;-75
2023/07/01 10:49:04;;;;;;;2.15;1.50;;;27.00;80.50;;;;;;7384243;19;20142;-75
2023/07/01 10:51:31;;;;;;;2.13;1.33;;;27.30;80.20;;;;;;7383273;19;20151;-74
2023/07/01 10:54:05;;;;;;;3.50;1.48;;;27.10;80.60;;;;;;7383790;19;20151;-74
2023/07/01 10:56:37;;;;;;;2.50;1.70;;;27.00;79.30;;;;;;7384593;19;20139;-75
2023/07/01 10:59:22;;;;;;;2.65;1.50;;;26.90;80.10;;;;;;7387417;19;20447;-75
2023/07/01 11:01:56;;;;;;;2.05;1.45;;;26.80;80.70;;;;;;7386754;19;20230;-74
2023/07/01 11:04:42;;;;;;;4.20;1.58;;;26.80;78.50;;;;;;7384175;19;20138;-75
2023/07/01 11:07:08;;;;;;;3.63;1.40;;;26.80;79.00;;;;;;7383514;19;20138;-76
2023/07/01 11:09:34;;;;;;;2.67;1.48;;;26.80;78.50;;;;;;7387000;19;20145;-74
2023/07/01 11:12:02;;;;;;;3.20;1.92;;;26.50;79.20;;;;;;7381015;19;20543;-77
2023/07/01 11:14:36;;;;;;;3.10;1.73;;;26.30;79.30;;;;;;7385714;19;20638;-76
2023/07/01 11:17:17;;;;;;;3.60;1.40;;;26.40;80.20;;;;;;7386163;19;20213;-76
2023/07/01 11:19:46;;;;;;;2.42;1.90;;;26.30;81.10;;;;;;7385390;19;20632;-76
2023/07/01 11:22:16;;;;;;;2.72;1.65;;;26.10;81.40;;;;;;7382715;19;20135;-75
2023/07/01 11:24:42;;;;;;;2.92;1.88;;;26.10;81.10;;;;;;7385186;19;20146;-75
2023/07/01 11:27:09;;;;;;;3.05;1.67;;;26.20;80.80;;;;;;7383342;19;20736;-75
2023/07/01 11:29:41;;;;;;;4.47;2.17;;;26.10;81.20;;;;;;7384836;19;20235;-76
2023/07/01 11:32:12;;;;;;;1.48;1.33;;;25.90;81.60;;;;;;7380003;19;20149;-75
2023/07/01 11:34:39;;;;;;;2.22;1.90;;;26.10;82.00;;;;;;7386791;19;20215;-76
2023/07/01 11:37:05;;;;;;;5.32;1.77;;;26.10;80.90;;;;;;7378221;19;20134;-76
2023/07/01 11:39:31;;;;;;;2.42;1.92;;;26.00;81.10;;;;;;7379608;19;20617;-75
2023/07/01 11:42:00;;;;;;;5.13;2.08;;;25.90;81.90;;;;;;7382317;19;20138;-76
2023/07/01 11:44:35;;;;;;;2.58;1.80;;;25.90;82.70;;;;;;7381514;19;20135;-75
2023/07/01 11:47:01;;;;;;;3.53;1.90;;;26.00;82.00;;;;;;7379886;19;20623;-75
2023/07/01 11:49:31;;;;;;;1.85;1.52;;;26.10;82.00;;;;;;7382961;19;20154;-76
2023/07/01 11:52:01;;;;;;;2.80;1.85;;;25.90;82.50;;;;;;7375947;19;20139;-77
2023/07/01 11:54:39;;;;;;;2.08;1.55;;;26.10;82.00;;;;;;7382577;19;20138;-78
2023/07/01 11:57:29;;;;;;;2.80;1.92;;;26.10;81.50;;;;;;7383283;19;20614;-77
2023/07/01 11:59:58;;;;;;;1.98;1.77;;;26.00;82.70;;;;;;7381985;19;20150;-77
2023/07/01 12:02:31;;;;;;;2.47;1.70;;;26.20;82.70;;;;;;7383773;19;20127;-76
2023/07/01 12:05:01;;;;;;;2.83;1.70;;;26.20;82.70;;;;;;7385494;19;20481;-75
2023/07/01 12:07:27;;;;;;;2.85;2.08;;;26.10;83.20;;;;;;7382379;19;21054;-75
2023/07/01 12:09:53;;;;;;;2.17;1.60;;;26.10;82.30;;;;;;7382405;19;20151;-80
2023/07/01 12:12:36;;;;;;;2.60;1.70;;;26.00;81.20;;;;;;7382865;19;20150;-79
2023/07/01 12:15:09;;;;;;;2.72;2.00;;;25.70;82.10;;;;;;7383704;19;20165;-82
2023/07/01 12:17:36;;;;;;;2.28;1.83;;;25.70;83.60;;;;;;7381972;19;20194;-75
2023/07/01 12:20:04;;;;;;;3.60;1.90;;;25.70;83.50;;;;;;7382770;19;20139;-75
2023/07/01 12:22:30;;;;;;;2.17;1.60;;;25.70;84.00;;;;;;7385244;19;20134;-76
2023/07/01 12:24:57;;;;;;;2.05;1.50;;;25.60;85.10;;;;;;7381598;19;20462;-76
2023/07/01 12:27:23;;;;;;;3.40;2.30;;;25.50;86.50;;;;;;7381856;19;20150;-75
2023/07/01 12:29:51;;;;;;;4.18;1.63;;;25.30;86.60;;;;;;7389589;19;20151;-75
2023/07/01 12:32:17;;;;;;;2.10;1.55;;;25.00;87.00;;;;;;7387897;19;20151;-75
2023/07/01 12:34:43;;;;;;;3.70;1.40;;;25.00;87.80;;;;;;7391090;19;20455;-75
2023/07/01 12:37:10;;;;;;;3.03;1.55;;;25.00;87.50;;;;;;7390660;19;20463;-75
2023/07/01 12:39:36;;;;;;;4.57;1.70;;;25.00;88.20;;;;;;7390266;19;20126;-76
2023/07/01 12:42:03;;;;;;;3.83;1.80;;;24.80;88.90;;;;;;7390191;19;20674;-76
2023/07/01 12:44:29;;;;;;;1.40;1.30;;;24.90;89.30;;;;;;7389333;19;20134;-75
2023/07/01 12:46:54;;;;;;;1.95;1.45;;;24.80;89.70;;;;;;7386297;19;20808;-74
2023/07/01 12:49:21;;;;;;;2.92;1.40;;;24.70;90.10;;;;;;7390963;19;20150;-75
2023/07/01 12:51:47;;;;;;;1.83;1.40;;;24.60;90.20;;;;;;7387412;19;20146;-75